createdAt,value
2022-10-06T00:01:22.890Z,7.67
2022-10-06T00:04:12.222Z,6.82
2022-10-06T00:06:59.883Z,7.23
2022-10-06T00:09:47.797Z,7.13
2022-10-06T00:12:40.958Z,7.97
2022-10-06T00:15:31.614Z,10.00
2022-10-06T00:18:19.216Z,11.87
2022-10-06T00:21:08.888Z,9.27
2022-10-06T00:23:56.779Z,14.17
2022-10-06T00:26:44.528Z,9.03
2022-10-06T00:29:32.076Z,9.80
2022-10-06T00:32:19.589Z,11.03
2022-10-06T00:35:09.263Z,9.47
2022-10-06T00:37:58.887Z,9.60
2022-10-06T00:40:48.526Z,10.40
2022-10-06T00:43:49.929Z,9.93
2022-10-06T00:46:45.285Z,11.13
2022-10-06T00:49:37.937Z,8.20
2022-10-06T00:52:29.693Z,11.33
2022-10-06T00:55:20.403Z,8.03
2022-10-06T00:58:08.841Z,8.47
2022-10-06T01:00:57.914Z,8.03
2022-10-06T01:03:51.581Z,6.90
2022-10-06T01:06:45.317Z,7.60
2022-10-06T01:09:33.439Z,7.17
2022-10-06T01:12:23.227Z,7.83
2022-10-06T01:15:11.957Z,6.77
2022-10-06T01:18:05.119Z,6.43
2022-10-06T01:20:59.427Z,6.27
2022-10-06T01:23:49.935Z,7.13
2022-10-06T01:26:42.017Z,7.00
2022-10-06T01:29:32.681Z,6.50
2022-10-06T01:32:20.771Z,6.97
2022-10-06T01:35:10.487Z,7.00
2022-10-06T01:37:59.947Z,10.13
2022-10-06T01:40:53.093Z,7.57
2022-10-06T01:43:41.157Z,10.15
2022-10-06T01:46:30.550Z,7.90
2022-10-06T01:49:18.167Z,6.78
2022-10-06T01:52:06.153Z,6.73
2022-10-06T01:54:55.913Z,7.17
2022-10-06T01:57:45.797Z,7.50
2022-10-06T02:00:34.012Z,8.57
2022-10-06T02:03:21.954Z,7.07
2022-10-06T02:06:10.764Z,7.87
2022-10-06T02:09:00.900Z,7.00
2022-10-06T02:11:48.585Z,8.73
2022-10-06T02:14:37.948Z,9.37
2022-10-06T02:17:25.836Z,6.80
2022-10-06T02:20:13.649Z,7.90
2022-10-06T02:23:02.623Z,7.20
2022-10-06T02:25:50.483Z,6.20
2022-10-06T02:28:38.551Z,5.80
2022-10-06T02:31:29.265Z,8.17
2022-10-06T02:34:17.348Z,6.00
2022-10-06T02:37:05.526Z,5.90
2022-10-06T02:39:53.122Z,5.67
2022-10-06T02:42:41.201Z,7.00
2022-10-06T02:45:31.273Z,6.03
2022-10-06T02:48:21.031Z,5.77
2022-10-06T02:51:11.610Z,6.27
2022-10-06T02:53:59.692Z,6.70
2022-10-06T02:56:47.265Z,6.40
2022-10-06T02:59:35.197Z,6.43
2022-10-06T03:02:23.826Z,8.23
2022-10-06T03:05:12.911Z,6.77
2022-10-06T03:08:01.214Z,5.67
2022-10-06T03:10:49.541Z,5.73
2022-10-06T03:13:37.014Z,6.53
2022-10-06T03:16:26.829Z,6.23
2022-10-06T04:43:33.851Z,5.93
2022-10-06T04:46:42.202Z,5.63
2022-10-06T04:49:31.816Z,6.27
2022-10-06T04:52:19.741Z,6.83
2022-10-06T06:22:14.695Z,10.10
2022-10-06T06:25:04.392Z,8.80
2022-10-06T06:27:58.094Z,9.65
2022-10-06T06:30:47.179Z,9.05
2022-10-06T06:33:35.810Z,9.90
2022-10-06T06:36:25.780Z,9.60
2022-10-06T06:39:15.219Z,10.77
2022-10-06T06:42:05.200Z,10.32
2022-10-06T06:47:56.318Z,12.55
2022-10-06T06:50:46.037Z,13.20
2022-10-06T06:53:35.029Z,14.73
2022-10-06T06:56:23.716Z,14.07
2022-10-06T06:59:14.626Z,14.95
2022-10-06T07:02:06.848Z,15.77
2022-10-06T07:04:58.525Z,14.70
2022-10-06T07:07:46.090Z,14.20
2022-10-06T07:10:36.224Z,17.75
2022-10-06T07:13:25.665Z,20.83
2022-10-06T07:16:33.132Z,14.98
2022-10-06T07:19:40.658Z,13.85
2022-10-06T07:22:47.736Z,13.50
2022-10-06T07:25:38.803Z,11.45
2022-10-06T07:28:30.798Z,8.32
2022-10-06T07:31:19.264Z,9.20
2022-10-06T07:34:08.668Z,7.90
2022-10-06T07:37:00.456Z,7.85
2022-10-06T07:39:49.793Z,7.55
2022-10-06T07:42:49.234Z,7.32
2022-10-06T07:45:46.998Z,6.40
2022-10-06T07:48:54.114Z,7.40
2022-10-06T07:51:43.088Z,6.10
2022-10-06T07:54:34.065Z,7.70
2022-10-06T07:57:46.285Z,5.22
2022-10-06T08:00:34.113Z,6.72
2022-10-06T08:03:22.170Z,7.38
2022-10-06T08:06:12.509Z,5.03
2022-10-06T08:09:03.160Z,4.47
2022-10-06T08:11:53.025Z,7.63
2022-10-06T08:14:40.553Z,3.92
2022-10-06T08:17:28.461Z,4.18
2022-10-06T08:20:17.216Z,4.28
2022-10-06T08:23:08.707Z,4.97
2022-10-06T08:25:56.510Z,4.63
2022-10-06T08:28:47.734Z,5.65
2022-10-06T08:31:35.516Z,5.40
2022-10-06T08:34:23.658Z,7.50
2022-10-06T08:37:19.849Z,3.90
2022-10-06T08:40:08.733Z,3.92
2022-10-06T08:42:59.016Z,3.33
2022-10-06T08:45:49.509Z,7.28
2022-10-06T08:48:38.874Z,3.13
2022-10-06T08:51:39.000Z,3.17
2022-10-06T08:54:33.381Z,3.17
2022-10-06T08:57:24.146Z,3.38
2022-10-06T09:00:18.022Z,3.65
2022-10-06T09:03:23.087Z,3.78
2022-10-06T09:06:19.515Z,3.08
2022-10-06T09:09:20.951Z,3.72
2022-10-06T09:12:15.666Z,5.00
2022-10-06T09:15:19.175Z,4.40
2022-10-06T09:18:11.460Z,3.40
2022-10-06T09:21:02.778Z,3.97
2022-10-06T09:23:57.124Z,3.78
2022-10-06T09:26:47.357Z,3.90
2022-10-06T09:29:35.026Z,4.65
2022-10-06T09:32:24.143Z,6.75
2022-10-06T09:35:19.331Z,3.28
2022-10-06T09:38:09.373Z,7.15
2022-10-06T09:40:57.746Z,3.40
2022-10-06T09:44:01.249Z,5.55
2022-10-06T09:46:49.154Z,3.15
2022-10-06T09:49:37.146Z,3.13
2022-10-06T09:52:24.690Z,2.80
2022-10-06T09:55:15.646Z,2.72
2022-10-06T09:58:04.374Z,2.50
2022-10-06T10:00:56.294Z,3.10
2022-10-06T10:04:15.643Z,2.40
2022-10-06T10:07:15.389Z,2.67
2022-10-06T10:10:21.573Z,2.83
2022-10-06T10:13:20.689Z,2.75
2022-10-06T10:16:10.878Z,3.05
2022-10-06T10:19:00.196Z,2.95
2022-10-06T10:21:48.214Z,2.25
2022-10-06T10:24:53.506Z,2.30
2022-10-06T10:27:55.774Z,3.58
2022-10-06T10:30:52.004Z,5.25
2022-10-06T10:33:54.174Z,2.42
2022-10-06T10:36:58.690Z,2.55
2022-10-06T10:39:52.478Z,2.30
2022-10-06T10:42:48.031Z,3.47
2022-10-06T10:45:38.335Z,1.52
2022-10-06T10:48:31.537Z,1.02
2022-10-06T10:51:25.932Z,1.77
2022-10-06T10:54:17.389Z,1.67
2022-10-06T10:57:05.859Z,1.45
2022-10-06T11:00:01.940Z,2.13
2022-10-06T11:02:50.749Z,2.92
2022-10-06T11:05:57.995Z,1.17
2022-10-06T11:08:55.389Z,4.05
2022-10-06T11:11:56.965Z,1.13
2022-10-06T11:14:52.588Z,3.03
2022-10-06T11:17:50.337Z,1.23
2022-10-06T11:20:49.871Z,5.90
2022-10-06T11:23:55.209Z,3.00
2022-10-06T11:26:59.086Z,1.20
2022-10-06T11:29:58.520Z,0.90
2022-10-06T11:33:01.338Z,2.15
2022-10-06T11:35:50.021Z,1.60
2022-10-06T11:38:43.481Z,2.45
2022-10-06T11:41:35.696Z,1.50
2022-10-06T11:44:32.638Z,1.10
2022-10-06T11:47:35.197Z,1.98
2022-10-06T11:50:39.661Z,2.53
2022-10-06T11:53:38.389Z,1.88
2022-10-06T11:56:47.114Z,1.25
2022-10-06T11:59:34.735Z,2.38
2022-10-06T12:02:38.671Z,1.10
2022-10-06T12:08:42.739Z,1.25
2022-10-06T12:11:40.528Z,1.80
2022-10-06T12:17:55.666Z,2.45
2022-10-06T12:20:56.914Z,0.95
2022-10-06T12:23:53.557Z,1.52
2022-10-06T12:26:51.438Z,1.33
2022-10-06T12:29:47.395Z,1.33
2022-10-06T12:32:50.313Z,4.45
2022-10-06T12:35:40.167Z,0.95
2022-10-06T12:38:44.363Z,0.77
2022-10-06T12:41:59.882Z,1.30
2022-10-06T12:44:51.614Z,1.85
2022-10-06T12:47:44.286Z,0.50
2022-10-06T12:50:32.582Z,0.85
2022-10-06T12:53:27.767Z,1.02
2022-10-06T12:56:28.631Z,0.70
2022-10-06T12:59:24.361Z,0.90
2022-10-06T13:02:18.354Z,0.98
2022-10-06T13:05:13.461Z,2.60
2022-10-06T13:08:03.550Z,1.25
2022-10-06T13:10:51.708Z,2.17
2022-10-06T13:13:46.568Z,0.95
2022-10-06T13:16:39.509Z,1.15
2022-10-06T13:19:30.079Z,0.98
2022-10-06T13:22:17.761Z,2.85
2022-10-06T13:25:06.472Z,1.73
2022-10-06T13:27:54.227Z,2.40
2022-10-06T13:30:42.362Z,2.13
2022-10-06T13:33:34.481Z,1.45
2022-10-06T13:36:23.681Z,1.17
2022-10-06T13:39:15.052Z,1.48
2022-10-06T13:42:05.710Z,1.02
2022-10-06T13:44:58.885Z,1.83
2022-10-06T13:47:46.668Z,1.27
2022-10-06T13:50:37.453Z,1.27
2022-10-06T13:53:28.631Z,0.80
2022-10-06T13:56:36.053Z,0.80
2022-10-06T13:59:36.720Z,1.27
2022-10-06T14:02:26.607Z,2.83
2022-10-06T14:05:37.865Z,1.60
2022-10-06T14:08:28.099Z,0.98
2022-10-06T14:11:22.515Z,1.02
2022-10-06T14:14:17.995Z,0.57
2022-10-06T14:17:06.134Z,1.08
2022-10-06T14:19:53.789Z,0.93
2022-10-06T14:22:43.123Z,0.95
2022-10-06T14:25:30.955Z,8.70
2022-10-06T14:28:18.872Z,0.95
2022-10-06T14:31:12.012Z,0.77
2022-10-06T14:34:02.634Z,1.75
2022-10-06T14:36:52.534Z,1.35
2022-10-06T14:39:42.324Z,1.65
2022-10-06T14:42:30.066Z,0.60
2022-10-06T14:45:19.468Z,1.45
2022-10-06T14:48:07.077Z,0.95
2022-10-06T14:50:54.650Z,1.77
2022-10-06T14:53:42.561Z,2.95
2022-10-06T14:56:34.944Z,0.77
2022-10-06T14:59:22.977Z,1.48
2022-10-06T15:02:12.013Z,4.30
2022-10-06T15:04:59.498Z,1.45
2022-10-06T15:08:04.335Z,2.75
2022-10-06T15:10:55.104Z,1.92
2022-10-06T15:13:44.554Z,2.08
2022-10-06T15:16:34.359Z,2.60
2022-10-06T15:19:22.382Z,1.77
2022-10-06T15:22:10.505Z,2.05
2022-10-06T15:24:58.392Z,1.65
2022-10-06T15:28:03.668Z,2.53
2022-10-06T15:30:52.939Z,1.58
2022-10-06T15:33:40.581Z,1.10
2022-10-06T15:36:30.000Z,3.03
2022-10-06T15:39:17.957Z,1.40
2022-10-06T15:42:06.667Z,2.80
2022-10-06T15:44:54.747Z,2.65
2022-10-06T15:47:43.720Z,0.93
2022-10-06T15:50:31.601Z,2.60
2022-10-06T15:53:22.572Z,1.42
2022-10-06T15:56:10.655Z,1.40
2022-10-06T15:58:58.647Z,1.48
2022-10-06T16:01:47.826Z,1.50
2022-10-06T16:04:55.188Z,1.58
2022-10-06T16:07:42.750Z,1.73
2022-10-06T16:10:30.554Z,1.20
2022-10-06T16:16:06.288Z,0.90
2022-10-06T16:18:54.114Z,1.85
2022-10-06T16:21:43.782Z,1.92
2022-10-06T16:24:31.459Z,2.60
2022-10-06T16:27:19.062Z,1.98
2022-10-06T16:30:08.627Z,2.30
2022-10-06T16:32:56.223Z,2.58
2022-10-06T16:35:44.707Z,2.53
2022-10-06T16:38:34.153Z,2.20
2022-10-06T16:41:22.556Z,2.30
2022-10-06T16:44:10.866Z,4.20
2022-10-06T16:46:58.931Z,2.05
2022-10-06T16:49:46.971Z,4.30
2022-10-06T16:52:34.598Z,2.30
2022-10-06T16:55:23.636Z,4.30
2022-10-06T16:58:11.344Z,4.05
2022-10-06T17:00:59.318Z,4.90
2022-10-06T17:09:24.461Z,7.05
2022-10-06T17:12:13.495Z,7.88
2022-10-06T17:15:00.920Z,10.13
2022-10-06T17:17:49.000Z,8.90
2022-10-06T17:20:36.947Z,8.65
2022-10-06T17:23:24.898Z,8.70
2022-10-06T17:26:17.550Z,8.40
2022-10-06T17:29:08.368Z,7.68
2022-10-06T17:31:59.001Z,7.53
2022-10-06T17:34:46.845Z,9.57
2022-10-06T18:19:57.802Z,8.63
2022-10-06T19:25:49.840Z,11.27
2022-10-06T19:28:39.451Z,10.93
2022-10-06T19:31:28.839Z,14.90
2022-10-06T19:34:18.019Z,7.60
2022-10-06T19:37:06.348Z,9.13
2022-10-06T19:39:54.599Z,10.80
2022-10-06T19:42:51.163Z,11.40
2022-10-06T19:45:40.773Z,10.60
2022-10-06T19:48:29.174Z,9.30
2022-10-06T19:51:19.084Z,7.87
2022-10-06T19:54:07.001Z,12.37
2022-10-06T19:56:56.185Z,10.35
2022-10-06T19:59:44.353Z,8.53
2022-10-06T20:02:34.926Z,8.37
2022-10-06T20:05:25.597Z,7.87
2022-10-06T20:08:13.219Z,7.47
2022-10-06T20:11:05.997Z,7.73
2022-10-06T20:13:53.544Z,8.87
2022-10-06T20:16:43.901Z,10.13
2022-10-06T20:19:33.141Z,7.80
2022-10-06T20:22:21.186Z,9.07
2022-10-06T20:25:09.166Z,8.27
2022-10-06T20:27:57.389Z,9.07
2022-10-06T20:30:50.002Z,10.03
2022-10-06T20:33:38.177Z,8.37
2022-10-06T20:36:28.063Z,8.20
2022-10-06T20:39:35.744Z,8.20
2022-10-06T20:42:23.579Z,8.10
2022-10-06T20:45:11.969Z,9.90
2022-10-06T20:48:00.280Z,10.03
2022-10-06T20:50:48.163Z,9.83
2022-10-06T20:53:37.286Z,9.60
2022-10-06T20:56:25.465Z,9.17
2022-10-06T20:59:14.965Z,9.30
2022-10-06T21:02:03.247Z,10.60
2022-10-06T21:04:51.258Z,12.83
2022-10-06T21:07:39.207Z,11.50
2022-10-06T21:10:28.212Z,10.47
2022-10-06T21:13:16.299Z,11.00
2022-10-06T21:16:04.675Z,9.40
2022-10-06T21:18:52.849Z,10.77
2022-10-06T21:21:41.565Z,11.63
2022-10-06T21:24:29.534Z,10.43
2022-10-06T21:27:19.275Z,11.73
2022-10-06T21:30:10.350Z,11.37
2022-10-06T21:32:58.599Z,14.30
2022-10-06T21:35:47.100Z,12.30
2022-10-06T21:38:37.189Z,13.93
2022-10-06T21:41:37.436Z,12.07
2022-10-06T21:44:26.761Z,13.50
2022-10-06T21:47:14.983Z,13.37
2022-10-06T21:50:03.220Z,14.53
2022-10-06T21:52:51.148Z,12.87
2022-10-06T21:55:41.889Z,13.63
2022-10-06T21:58:29.505Z,21.20
2022-10-06T22:01:20.105Z,13.07
2022-10-06T22:04:08.420Z,12.77
2022-10-06T22:06:55.979Z,11.77
2022-10-06T22:09:43.721Z,12.80
2022-10-06T22:12:31.408Z,11.83
2022-10-06T22:15:19.466Z,12.77
2022-10-06T22:18:08.436Z,12.67
2022-10-06T22:20:57.989Z,13.27
2022-10-06T22:23:47.562Z,14.77
2022-10-06T22:26:37.618Z,14.37
2022-10-06T22:29:25.473Z,14.40
2022-10-06T22:32:13.392Z,11.37
2022-10-06T22:35:02.559Z,13.87
2022-10-06T22:37:50.457Z,10.47
2022-10-06T22:40:38.440Z,11.33
2022-10-06T22:43:26.165Z,12.77
2022-10-06T22:46:14.039Z,12.23
2022-10-06T22:49:02.280Z,12.87
2022-10-06T22:51:51.626Z,13.67
2022-10-06T22:54:39.482Z,11.87
2022-10-06T22:57:27.216Z,12.33
2022-10-06T23:00:16.040Z,13.13
2022-10-06T23:03:03.727Z,12.80
2022-10-06T23:05:58.733Z,13.03
2022-10-06T23:08:49.489Z,13.57
2022-10-06T23:11:37.098Z,13.07
2022-10-06T23:14:24.798Z,13.97
2022-10-06T23:17:12.679Z,14.07
2022-10-06T23:20:00.299Z,14.57
2022-10-06T23:22:48.587Z,14.43
2022-10-06T23:25:39.599Z,14.80
2022-10-06T23:28:27.589Z,12.60
2022-10-06T23:31:15.197Z,14.03
2022-10-06T23:34:02.926Z,13.73
2022-10-06T23:36:50.942Z,14.20
2022-10-06T23:39:38.948Z,11.80
2022-10-06T23:42:28.340Z,13.17
2022-10-06T23:45:16.295Z,12.70
2022-10-06T23:48:06.442Z,16.10
2022-10-06T23:50:58.928Z,13.70
2022-10-06T23:53:47.076Z,11.47
2022-10-06T23:56:35.184Z,11.83
2022-10-06T23:59:26.339Z,11.83
